Detalii statie TARCEA AGRO TARCEA [0000197E]

Toti senzorii

Date Temperatura solului [C]Precipitatii [mm]Voltaj baterie [mV]Leaf Wetness [Min]HC Air temperature [C]HC Relative humidity [%]Punctul de roua [C]
medieminmaxsumaultimatimpmedieminmaxmediemediemin
2019-02-21 00:00:00 3.4 3.3 3.6 0 6844 0.03 -1.06 0.86 98.48 -0.2 -1.1
2019-02-21 01:00:00 3.1 3 3.4 0 6826 -0.78 -1.19 -0.11 100 -0.6 -1
2019-02-21 02:00:00 2.8 2.6 3 0 6834 0.32 0.03 0.8 100 0.2 0
2019-02-21 03:00:00 2.6 2.6 2.8 0 6834 -0.05 -0.49 0.45 100 0 -0.3
2019-02-21 04:00:00 2.4 2.3 2.6 0 6826 -0.65 -1.22 0.34 100 -0.5 -1.1
2019-02-21 05:00:00 2.3 2.2 2.5 0 6826 -1.18 -1.69 -0.73 100 -1 -1.5
2019-02-21 06:00:00 2.1 2 2.2 0 6816 -1.81 -2.08 -1.42 100 -1.6 -1.9
2019-02-21 07:00:00 1.9 1.8 2.1 0 6816 -1.3 -1.85 -0.65 100 -1.1 -1.7
2019-02-21 08:00:00 1.8 1.8 2 0 6806 -0.31 -0.73 0.22 100 -0.2 -0.6
2019-02-21 09:00:00 1.7 1.7 1.9 0 6826 0.5 0.25 0.8 100 0.4 0.2
2019-02-21 10:00:00 1.7 1.7 1.8 0 6834 1.54 0.9 2.47 100 1.5 0.9
2019-02-21 11:00:00 1.8 1.8 2.1 0 6884 3.62 2.5 4.66 92.72 2.4 1.7
2019-02-21 12:00:00 2.3 2.1 2.5 0 6894 5.62 4.85 6.39 77.57 1.8 1.5
2019-02-21 13:00:00 2.8 2.5 3.1 0 6962 7.85 6.51 9.28 66.22 1.7 1.1
2019-02-21 14:00:00 3.4 3.2 3.9 0 6982 9.91 9.2 10.57 49.49 -0.3 -1.1
2019-02-21 15:00:00 4.1 3.8 4.4 0 6982 10.65 10.42 11.09 42.83 -1.5 -2.4
2019-02-21 16:00:00 4.7 4.4 4.9 0 6982 11.15 10.89 11.37 38.39 -2.6 -3.2
2019-02-21 17:00:00 5 4.8 5.3 0 6952 10.23 9.65 11.23 40.11 -2.8 -3.3
2019-02-21 18:00:00 5.1 5.1 5.3 0 6932 8.24 6.54 9.55 50.71 -1.4 -1.8
2019-02-21 19:00:00 5 4.8 5.1 0 6904 4.73 4 6.04 63.96 -1.5 -1.9
2019-02-21 20:00:00 4.5 4.3 4.8 0 6884 3.76 3.37 4.3 68.9 -1.4 -1.7
2019-02-21 21:00:00 4.1 4 4.4 0 6874 3.43 3.19 3.74 72.09 -1.1 -1.4
2019-02-21 22:00:00 3.9 3.7 4.1 0 6864 4.21 3.69 4.99 71.55 -0.5 -0.8
2019-02-21 23:00:00 3.7 3.5 3.8 0 6864 5.04 4.68 5.36 67.01 -0.6 -0.8
2019-02-22 00:00:00 3.6 3.5 3.8 0 6864 5.33 4.92 5.73 65.55 -0.6 -0.9
2019-02-22 01:00:00 3.5 3.4 3.6 0 6854 5.34 5.2 5.69 68.62 0 -0.8
2019-02-22 02:00:00 3.5 3.4 3.6 0.4 6854 4.94 4.39 5.36 77.47 1.1 0.1
2019-02-22 03:00:00 3.5 3.4 3.6 1.8 6844 3.91 3.57 4.28 98.47 3.5 3
2019-02-22 04:00:00 3.5 3.4 3.6 1.2 6854 3.46 3.38 3.59 100 3.4 3.3
2019-02-22 05:00:00 3.4 3.4 3.6 0 6844 3.2 3.11 3.34 100 3.1 3.1
2019-02-22 06:00:00 3.4 3.3 3.5 0.2 6844 2.91 2.77 3.19 100 2.8 2.7
2019-02-22 07:00:00 3.3 3.3 3.5 0.2 6844 3.01 2.84 3.12 100 2.9 2.8
2019-02-22 08:00:00 3.3 3.2 3.4 0.8 6826 3.3 3.18 3.4 100 3.2 3.1
2019-02-22 09:00:00 3.3 3.3 3.4 0.4 6844 3.69 3.44 4.02 100 3.6 3.4
2019-02-22 10:00:00 3.3 3.3 3.4 0 6864 4.51 4.06 4.94 100 4.4 4
2019-02-22 11:00:00 3.5 3.4 3.8 0 6854 5.12 5.07 5.2 100 5 5
2019-02-22 12:00:00 3.8 3.8 4 0 6844 5.43 5.2 5.66 100 5.4 5.2
2019-02-22 13:00:00 4 3.9 4.3 0.2 6844 4.92 4.18 5.61 100 4.8 4.1
2019-02-22 14:00:00 4.1 4.1 4.2 0.2 6864 3.45 2.78 4.25 98.39 3.1 1.5
2019-02-22 15:00:00 4 3.9 4.2 0 7010 3.99 3.61 4.32 68.4 -1.4 -3.3
2019-02-22 16:00:00 4 3.8 4.1 0 7070 3.58 2.68 4.12 52.6 -5.2 -8.1
2019-02-22 17:00:00 3.9 3.6 4.1 0 7050 1.99 1.44 2.67 43.72 -9.1 -11.2
2019-02-22 18:00:00 3.5 3.3 3.7 0 6982 0.65 -0.05 1.28 42.79 -10.6 -11.8
2019-02-22 19:00:00 3 2.7 3.2 0 6904 -0.57 -1.1 -0.2 42.27 -11.8 -12.7